University of Tampa, Florida
Current Conditions -  °F | °C
As of 1:53 PM on Friday 24 Oct 2014 (Local Time) from KTPA Reporting Station
Scattered Clouds Scattered Clouds  
Wind Chill: 80°   Ceiling: Unl
Heat Index: 80°   Visibility: 10mi
Dew Point: 55°   Wind: 6mph
Humidity: 42%   Direction: NA
Pressure: 29.96"   Gusts: NA
Location:  27.9407°N, 82.474°W
Report Text: KTPA 241753Z VRB05KT 10SM SCT049 27/13 A2996 RMK AO2 SLP145 T02670128 10267 20167 58018
Loading
Personal Weather Stations






























Interactive Weather Map
Tropical Storm Tracking
New forecast layout! Learn more

10-Day Weather Forecast

Advertisements
Track Severe Weather on mobile